Aviation Digital Data Service (ADDS)

Output produced by METARs form (0139 UTC 31 May 2020)
found at http://aviationweather.gov/metar/data/
 
KOEO 310115Z AUTO 00000KT 10SM CLR 17/02 A3028 RMK AO2 T01650021